Time;durP1;ratioP1;P1;durP2;ratioP2;P2;SDS_P1;SDS_P2;PMS_P1;PMS_P2;Temp;Humidity;BMP_temperature;BMP_pressure;BME280_temperature;BME280_humidity;BME280_pressure;Samples;Min_cycle;Max_cycle;Signal;HPM_P1;HPM_P2
2022/01/21 00:01:26;;;;;;;;;;;6.60;99.90;;;6.66;79.60;103363.19;5072216;28;20486;-66
2022/01/21 00:03:55;;;;;;;18.92;5.97;;;6.60;99.90;;;6.73;79.97;103357.41;5072630;28;19920;-65
2022/01/21 00:06:24;;;;;;;18.93;5.93;;;6.50;99.90;;;6.64;79.87;103356.97;5072028;28;20095;-65
2022/01/21 00:08:54;;;;;;;20.10;5.87;;;6.50;99.90;;;6.90;79.75;103369.69;5071806;28;20055;-65
2022/01/21 00:11:25;;;;;;;17.70;5.45;;;6.60;99.90;;;6.70;79.78;103368.66;5071533;28;20075;-65
2022/01/21 00:13:54;;;;;;;23.53;5.97;;;6.60;99.90;;;6.77;79.73;103357.66;5071659;28;20056;-66
2022/01/21 00:16:25;;;;;;;17.63;5.57;;;6.60;99.90;;;6.69;79.72;103361.63;5071983;28;20080;-66
2022/01/21 00:19:00;;;;;;;16.85;5.95;;;6.60;99.90;;;6.77;80.06;103362.00;5071683;28;20057;-65
2022/01/21 00:30:16;;;;;;;16.83;5.13;;;6.50;99.90;;;6.95;78.78;103355.06;5070236;28;20072;-66
2022/01/21 00:32:47;;;;;;;15.90;5.10;;;6.70;99.90;;;6.85;78.94;103366.81;5073297;28;20151;-66
2022/01/21 00:38:06;;;;;;;21.42;6.18;;;6.70;99.90;;;6.84;78.58;103369.38;5075648;28;20040;-67
2022/01/21 00:40:36;;;;;;;15.67;5.87;;;6.70;99.90;;;6.95;78.81;103366.47;5075199;28;20048;-66
2022/01/21 00:43:13;;;;;;;18.27;5.93;;;6.70;99.90;;;7.01;78.32;103348.34;5075406;28;20048;-66
2022/01/21 00:45:42;;;;;;;18.67;5.63;;;6.80;99.90;;;7.03;78.11;103361.56;5075482;28;20450;-66
2022/01/21 00:48:10;;;;;;;16.75;6.00;;;6.80;99.90;;;6.81;77.66;103359.63;5074015;28;20072;-66
2022/01/21 00:50:39;;;;;;;27.30;6.30;;;6.70;99.90;;;6.38;79.32;103346.00;5074967;28;20409;-66
2022/01/21 00:53:07;;;;;;;18.87;5.27;;;6.40;99.90;;;6.63;79.93;103363.94;5075273;28;20083;-66
2022/01/21 00:55:37;;;;;;;18.37;5.87;;;6.40;99.90;;;6.62;79.52;103356.84;5073906;28;20086;-66
2022/01/21 00:58:07;;;;;;;15.37;5.50;;;6.40;99.90;;;6.88;78.69;103358.19;5073843;28;20052;-66
2022/01/21 01:00:36;;;;;;;16.70;5.73;;;6.60;99.90;;;6.78;78.40;103348.94;5073724;28;20125;-66
2022/01/21 01:03:05;;;;;;;19.73;5.53;;;6.70;99.90;;;6.83;77.99;103351.81;5073633;28;20070;-66
2022/01/21 01:05:34;;;;;;;22.83;6.30;;;6.70;99.90;;;6.73;77.77;103365.31;5074802;28;20402;-67
2022/01/21 01:08:03;;;;;;;17.13;5.05;;;6.70;99.90;;;6.97;77.32;103361.25;5075008;28;20114;-66
2022/01/21 01:10:46;;;;;;;14.80;5.63;;;6.70;99.90;;;6.76;77.30;103357.56;5074732;28;20052;-66
2022/01/21 01:21:42;;;;;;;17.10;5.10;;;6.80;99.90;;;6.90;77.59;103378.50;5074817;28;20048;-66
2022/01/21 01:29:50;;;;;;;13.77;4.78;;;6.70;99.90;;;6.95;78.45;103366.47;5061627;28;20133;-67
2022/01/21 01:32:18;;;;;;;11.02;5.22;;;6.80;99.90;;;7.06;77.84;103377.53;5074649;28;20510;-67
2022/01/21 01:34:46;;;;;;;16.55;4.50;;;6.90;99.90;;;7.05;78.32;103373.09;5073608;28;20051;-67
2022/01/21 01:37:28;;;;;;;13.53;4.87;;;6.90;99.90;;;6.94;78.83;103361.13;5074632;28;20478;-67
2022/01/21 01:40:13;;;;;;;10.50;4.63;;;6.80;99.90;;;6.97;78.48;103374.41;5074556;28;20056;-69
2022/01/21 01:51:19;;;;;;;9.60;4.60;;;6.50;99.90;;;6.72;79.61;103352.97;5056522;28;20110;-67
2022/01/21 01:53:52;;;;;;;20.05;5.57;;;6.50;99.90;;;6.74;79.63;103352.22;5072914;28;20461;-67
2022/01/21 01:56:25;;;;;;;15.10;5.30;;;6.50;99.90;;;7.04;78.41;103353.78;5073656;28;20143;-67
2022/01/21 01:58:54;;;;;;;15.47;5.10;;;6.80;99.90;;;7.18;77.86;103352.72;5072417;28;20057;-67
2022/01/21 02:01:23;;;;;;;13.23;5.03;;;6.90;99.90;;;7.23;77.20;103358.22;5073642;28;20044;-67
2022/01/21 02:03:52;;;;;;;13.30;5.30;;;7.10;99.90;;;7.28;76.83;103354.06;5072595;28;20053;-66
2022/01/21 02:06:21;;;;;;;16.75;4.82;;;7.10;99.90;;;7.37;76.73;103353.63;5074244;28;20494;-67
2022/01/21 02:08:50;;;;;;;11.70;5.68;;;7.20;99.90;;;7.48;76.19;103353.31;5073765;28;20067;-67
2022/01/21 02:11:18;;;;;;;16.23;5.13;;;7.30;99.90;;;7.32;75.51;103356.00;5072339;28;20059;-67
2022/01/21 02:13:51;;;;;;;14.13;5.32;;;7.20;99.90;;;7.25;76.08;103351.28;5073719;28;20051;-67
2022/01/21 02:16:34;;;;;;;9.23;5.38;;;7.20;99.90;;;7.04;76.73;103344.97;5072340;28;20106;-67
2022/01/21 02:21:51;;;;;;;11.43;5.13;;;6.80;99.90;;;6.64;77.25;103313.13;5073496;28;20443;-66
2022/01/21 02:24:24;;;;;;;14.52;5.35;;;6.70;99.90;;;6.83;77.16;103357.06;5073301;28;20040;-67
2022/01/21 02:26:54;;;;;;;10.27;4.90;;;6.60;99.90;;;6.61;77.08;103333.09;5072180;28;20553;-66
2022/01/21 02:29:29;;;;;;;10.00;5.33;;;6.60;99.90;;;6.95;76.63;103389.25;5072112;28;20398;-66
2022/01/21 02:32:01;;;;;;;17.03;5.27;;;6.70;99.90;;;6.96;76.51;103360.38;5072144;28;20135;-66
2022/01/21 02:34:31;;;;;;;13.27;5.20;;;6.70;99.90;;;6.94;76.18;103347.97;5072150;28;20065;-67
2022/01/21 02:37:02;;;;;;;12.30;4.63;;;6.80;99.90;;;7.14;75.79;103366.53;5072108;28;20048;-66
2022/01/21 02:39:30;;;;;;;11.10;5.07;;;6.90;99.90;;;7.24;75.22;103362.63;5072019;28;20135;-66
2022/01/21 02:41:59;;;;;;;13.70;5.68;;;7.00;99.90;;;7.32;75.08;103363.03;5071829;28;20052;-66
2022/01/21 02:44:28;;;;;;;14.88;6.15;;;7.10;99.90;;;7.33;74.42;103357.84;5071630;28;20056;-66
2022/01/21 02:46:58;;;;;;;12.70;4.75;;;7.20;99.90;;;7.49;74.16;103367.38;5071925;28;20053;-66
2022/01/21 02:49:31;;;;;;;10.15;4.80;;;7.20;99.90;;;7.54;74.27;103373.75;5072179;28;20462;-66
2022/01/21 02:52:02;;;;;;;14.25;4.65;;;7.30;99.90;;;7.54;74.49;103379.03;5071756;28;20060;-66
2022/01/21 02:54:33;;;;;;;11.50;4.95;;;7.30;99.90;;;7.02;76.79;103368.59;5071428;28;20056;-66
2022/01/21 02:57:03;;;;;;;15.80;5.60;;;6.90;99.90;;;6.92;77.89;103365.41;5071811;28;20056;-66
2022/01/21 02:59:33;;;;;;;18.13;6.53;;;6.80;99.90;;;7.29;77.50;103366.41;5073133;28;20049;-66
2022/01/21 03:02:02;;;;;;;11.00;4.45;;;7.00;99.90;;;7.37;77.98;103365.06;5072848;28;20097;-65
2022/01/21 03:04:38;;;;;;;;;;;7.10;99.90;;;7.32;77.72;103326.19;5071969;28;20518;-66
2022/01/21 03:07:08;;;;;;;12.73;4.30;;;7.30;99.90;;;7.40;77.75;103344.13;5071407;28;20428;-66
2022/01/21 03:09:37;;;;;;;12.63;5.45;;;7.30;99.90;;;7.08;78.71;103344.31;5071681;28;20391;-66
2022/01/21 03:12:06;;;;;;;10.82;3.92;;;7.10;99.90;;;6.88;79.67;103347.66;5072459;28;20555;-66
2022/01/21 03:14:36;;;;;;;10.85;4.65;;;6.90;99.90;;;7.00;79.56;103343.03;5071114;28;20051;-66
2022/01/21 03:17:04;;;;;;;10.80;4.70;;;6.80;99.90;;;7.23;79.32;103347.69;5071249;28;20079;-66
2022/01/21 03:19:33;;;;;;;8.10;4.55;;;7.00;99.90;;;7.26;78.71;103351.34;5070966;28;20063;-65
2022/01/21 03:22:03;;;;;;;8.45;4.75;;;7.00;99.90;;;7.24;78.21;103365.25;5071225;28;20098;-66
2022/01/21 03:24:33;;;;;;;9.23;4.47;;;7.10;99.90;;;6.92;78.20;103323.31;5071111;28;20370;-66
2022/01/21 03:27:01;;;;;;;11.30;4.43;;;7.00;99.90;;;6.91;78.46;103361.88;5071229;28;20127;-66
2022/01/21 03:29:30;;;;;;;9.63;4.67;;;6.80;99.90;;;6.59;78.88;103288.34;5070806;28;20057;-65
2022/01/21 03:31:58;;;;;;;6.82;4.18;;;6.80;99.90;;;6.98;78.50;103358.75;5070740;28;20098;-66
2022/01/21 03:34:27;;;;;;;9.05;4.15;;;6.80;99.90;;;6.89;78.51;103362.63;5070787;28;20413;-65
2022/01/21 03:36:56;;;;;;;10.77;4.38;;;6.70;99.90;;;6.83;78.35;103364.94;5070676;28;20126;-66
2022/01/21 03:39:24;;;;;;;7.40;4.00;;;6.60;99.90;;;6.75;78.61;103369.81;5071776;28;20520;-65
2022/01/21 03:41:55;;;;;;;5.82;4.43;;;6.50;99.90;;;6.33;78.64;103263.34;5070663;28;20045;-65
2022/01/21 03:44:23;;;;;;;9.43;4.00;;;6.50;99.90;;;6.88;78.64;103358.19;5070505;28;20048;-66
2022/01/21 03:46:52;;;;;;;6.20;4.18;;;6.60;99.90;;;6.31;78.35;103253.56;5070634;28;20056;-66
2022/01/21 03:49:22;;;;;;;9.65;4.38;;;6.60;99.90;;;6.95;78.29;103366.47;5072292;28;20478;-66
2022/01/21 03:51:50;;;;;;;9.03;4.43;;;6.70;99.90;;;6.94;78.38;103355.88;5070518;28;20048;-65
2022/01/21 03:54:18;;;;;;;6.28;3.78;;;6.70;99.90;;;6.87;78.49;103367.78;5070513;28;20048;-66
2022/01/21 03:56:47;;;;;;;6.72;4.05;;;6.70;99.90;;;6.88;78.36;103366.06;5070532;28;20059;-66
2022/01/21 03:59:17;;;;;;;7.05;4.03;;;6.60;99.90;;;6.83;78.56;103371.09;5070453;28;20494;-66
2022/01/21 04:01:45;;;;;;;7.07;4.03;;;6.60;99.90;;;6.75;78.39;103366.28;5071543;28;20457;-65
2022/01/21 04:04:14;;;;;;;8.05;4.38;;;6.50;99.90;;;6.63;79.10;103373.53;5070441;28;20727;-65
2022/01/21 04:06:42;;;;;;;7.63;4.30;;;6.40;99.90;;;6.62;78.90;103367.38;5069770;28;20060;-65
2022/01/21 04:09:11;;;;;;;6.90;3.97;;;6.40;99.90;;;6.66;79.10;103376.34;5070372;28;20048;-65
2022/01/21 04:11:40;;;;;;;14.27;4.23;;;6.40;99.90;;;6.66;79.44;103369.34;5070517;28;20057;-65
2022/01/21 04:14:08;;;;;;;10.88;4.80;;;6.40;99.90;;;6.65;79.60;103367.53;5071857;28;20155;-65
2022/01/21 04:16:39;;;;;;;10.05;4.93;;;6.40;99.90;;;6.66;79.98;103365.81;5070488;28;20144;-65
2022/01/21 04:19:07;;;;;;;12.15;5.07;;;6.40;99.90;;;6.72;79.63;103374.00;5071878;28;20489;-65
2022/01/21 04:21:36;;;;;;;9.63;4.83;;;6.50;99.90;;;6.58;79.53;103369.78;5070843;28;20045;-66
2022/01/21 04:24:06;;;;;;;14.27;4.93;;;6.40;99.90;;;6.80;80.14;103377.94;5070403;28;20094;-65
2022/01/21 04:26:40;;;;;;;19.17;5.43;;;6.50;99.90;;;6.51;80.79;103367.63;5070328;28;20072;-65
2022/01/21 04:29:14;;;;;;;13.63;5.27;;;6.50;99.90;;;6.83;80.58;103372.84;5070240;28;20060;-65
2022/01/21 04:31:47;;;;;;;16.92;5.22;;;6.70;99.90;;;7.06;80.29;103373.19;5071617;28;20379;-65
2022/01/21 04:34:18;;;;;;;14.90;5.07;;;6.90;99.90;;;7.18;80.00;103384.28;5070191;28;20051;-65
2022/01/21 04:36:47;;;;;;;14.93;5.85;;;7.00;99.90;;;7.19;80.04;103377.31;5070171;28;20133;-65
2022/01/21 04:39:23;;;;;;;16.27;5.40;;;7.00;99.90;;;7.32;80.44;103378.84;5070111;28;20520;-66
2022/01/21 04:47:28;;;;;;;15.75;5.00;;;7.40;99.90;;;7.50;79.53;103371.81;5070109;28;20110;-65
2022/01/21 04:49:57;;;;;;;11.50;4.70;;;7.30;99.90;;;7.36;79.52;103371.13;5071141;28;20573;-65
2022/01/21 04:52:26;;;;;;;9.05;5.40;;;7.30;99.90;;;7.31;79.67;103380.56;5069646;28;20047;-65
2022/01/21 04:55:00;;;;;;;16.45;4.78;;;7.20;99.90;;;7.44;79.25;103382.03;5071311;28;20126;-65
2022/01/21 04:57:32;;;;;;;17.42;5.50;;;7.20;99.90;;;7.40;79.10;103382.72;5069888;28;20044;-65
2022/01/21 05:00:01;;;;;;;16.85;5.40;;;7.20;99.90;;;7.34;79.47;103385.06;5069569;28;20079;-66
2022/01/21 05:02:34;;;;;;;13.25;5.03;;;7.10;99.90;;;7.29;79.01;103383.13;5069853;28;20106;-65
2022/01/21 05:05:07;;;;;;;14.65;4.70;;;7.00;99.90;;;7.25;79.47;103382.88;5069960;28;20060;-65
2022/01/21 05:07:38;;;;;;;11.48;5.65;;;7.00;99.90;;;7.30;79.04;103377.00;5069882;28;20215;-65
2022/01/21 05:10:08;;;;;;;8.77;5.20;;;7.00;99.90;;;7.18;79.48;103378.16;5069479;28;20152;-65
2022/01/21 05:12:37;;;;;;;17.80;5.53;;;6.90;99.90;;;7.13;79.17;103370.03;5069735;28;20045;-65
2022/01/21 05:15:15;;;;;;;16.13;5.50;;;6.90;99.90;;;7.12;79.40;103373.47;5069698;28;20143;-66
2022/01/21 05:17:49;;;;;;;15.95;5.82;;;6.90;99.90;;;7.14;79.51;103371.81;5071064;28;20049;-66
2022/01/21 05:20:41;;;;;;;14.05;5.97;;;6.90;99.90;;;7.17;79.21;103376.34;5073125;28;20098;-65
2022/01/21 05:23:44;;;;;;;15.80;5.25;;;6.90;99.90;;;7.22;79.08;103370.47;5069245;28;20458;-66
2022/01/21 05:26:14;;;;;;;15.60;5.95;;;6.90;99.90;;;7.23;79.12;103374.91;5073403;28;20053;-66
2022/01/21 05:28:43;;;;;;;10.93;4.80;;;7.00;99.90;;;7.17;79.11;103369.34;5073273;28;20083;-66
2022/01/21 05:31:37;;;;;;;15.07;5.15;;;6.90;99.90;;;7.15;79.33;103362.19;5074385;28;20123;-65
2022/01/21 05:34:20;;;;;;;18.45;5.03;;;6.90;99.90;;;7.14;79.50;103360.41;5073347;28;20055;-66
2022/01/21 05:37:07;;;;;;;15.65;4.97;;;6.90;99.90;;;7.23;79.39;103368.75;5074337;28;20161;-66
2022/01/21 05:39:45;;;;;;;15.52;6.03;;;7.00;99.90;;;7.24;78.99;103358.28;5073179;28;20051;-66
2022/01/21 05:42:24;;;;;;;14.48;5.35;;;7.00;99.90;;;7.10;79.57;103358.44;5074582;28;20047;-66
2022/01/21 05:48:24;;;;;;;18.33;6.00;;;6.90;99.90;;;7.12;79.73;103362.94;5064823;28;20052;-65
2022/01/21 05:51:08;;;;;;;10.52;5.68;;;6.90;99.90;;;7.12;79.43;103354.16;5074520;28;20052;-66
2022/01/21 05:53:57;;;;;;;15.30;5.47;;;6.90;99.90;;;7.16;79.80;103349.09;5074017;28;20418;-65
2022/01/21 05:56:47;;;;;;;20.98;5.43;;;6.90;99.90;;;7.18;79.47;103352.72;5072866;28;20102;-65
2022/01/21 05:59:35;;;;;;;13.77;6.13;;;6.90;99.90;;;7.17;78.82;103357.91;5072763;28;20063;-66
2022/01/21 06:02:05;;;;;;;17.10;5.53;;;6.90;99.90;;;7.01;79.26;103336.91;5073774;28;20447;-66
2022/01/21 06:04:34;;;;;;;12.70;5.20;;;6.90;99.90;;;7.13;79.19;103366.47;5072584;28;20104;-66
2022/01/21 06:07:06;;;;;;;17.67;5.78;;;6.90;99.90;;;7.08;79.05;103373.25;5072603;28;20385;-66
2022/01/21 06:09:37;;;;;;;17.17;6.45;;;6.90;99.90;;;7.09;78.87;103368.06;5073724;28;20117;-67
2022/01/21 06:12:07;;;;;;;16.17;5.97;;;6.80;99.90;;;6.85;78.97;103339.63;5073643;28;20131;-66
2022/01/21 06:14:36;;;;;;;15.52;6.43;;;6.70;99.90;;;6.98;79.31;103368.34;5073853;28;20537;-65
2022/01/21 06:17:06;;;;;;;16.57;6.40;;;6.70;99.90;;;7.07;79.36;103374.06;5072360;28;20463;-66
2022/01/21 06:19:34;;;;;;;14.70;5.82;;;6.80;99.90;;;7.07;79.81;103379.31;5073475;28;20060;-66
2022/01/21 06:22:04;;;;;;;16.20;5.68;;;6.80;99.90;;;7.08;79.65;103384.66;5073228;28;20526;-65
2022/01/21 06:24:33;;;;;;;18.92;5.97;;;6.80;99.90;;;7.24;79.64;103388.97;5073389;28;20123;-65
2022/01/21 06:27:03;;;;;;;16.50;5.97;;;7.00;99.90;;;7.14;79.13;103389.34;5073240;28;20064;-65
2022/01/21 06:29:32;;;;;;;;;;;6.90;99.90;;;7.26;78.97;103385.59;5072843;28;20144;-66
2022/01/21 06:32:00;;;;;;;17.05;6.40;;;7.00;99.90;;;7.22;78.63;103380.06;5073133;28;19933;-65
2022/01/21 06:34:28;;;;;;;14.20;5.85;;;7.00;99.90;;;7.15;79.02;103388.50;5073116;28;20055;-65
2022/01/21 06:36:57;;;;;;;24.27;6.65;;;6.90;99.90;;;7.35;78.71;103400.94;5073077;28;20541;-66
2022/01/21 06:39:27;;;;;;;19.35;5.90;;;7.10;99.90;;;7.50;78.02;103403.41;5073001;28;20090;-66
2022/01/21 06:41:55;;;;;;;20.13;6.72;;;7.20;99.90;;;7.50;77.52;103401.69;5073338;28;20456;-66
2022/01/21 06:44:24;;;;;;;18.05;5.65;;;7.40;99.90;;;7.39;77.68;103395.00;5072771;28;20489;-65
2022/01/21 06:46:52;;;;;;;14.63;5.60;;;7.30;99.90;;;7.50;77.08;103390.25;5072923;28;20492;-65
2022/01/21 06:49:20;;;;;;;18.45;5.28;;;7.40;99.90;;;7.64;76.71;103402.34;5073069;28;20056;-66
2022/01/21 06:51:49;;;;;;;17.40;5.47;;;7.50;99.90;;;7.61;76.66;103397.81;5073095;28;20465;-65
2022/01/21 06:54:17;;;;;;;18.42;5.80;;;7.40;99.90;;;7.54;76.63;103401.00;5071626;28;20056;-65
2022/01/21 06:56:47;;;;;;;20.80;5.28;;;7.40;99.90;;;7.57;77.17;103401.13;5072833;28;20072;-65
2022/01/21 06:59:15;;;;;;;21.17;5.57;;;7.40;99.90;;;7.78;75.87;103398.66;5072890;28;20109;-65
2022/01/21 07:01:44;;;;;;;23.42;6.40;;;7.60;99.90;;;7.75;75.33;103399.41;5072719;28;20378;-65
2022/01/21 07:04:12;;;;;;;23.17;5.70;;;7.60;99.90;;;7.60;76.00;103390.78;5072561;28;20493;-65
2022/01/21 07:06:40;;;;;;;16.52;5.63;;;7.50;99.90;;;7.43;76.48;103390.78;5072861;28;20052;-65
2022/01/21 07:09:09;;;;;;;20.98;6.18;;;7.30;99.90;;;7.67;76.10;103390.22;5071423;28;20139;-65
2022/01/21 07:11:37;;;;;;;18.27;5.93;;;7.50;99.90;;;7.63;76.00;103390.00;5073148;28;20052;-65
2022/01/21 07:14:07;;;;;;;20.80;6.72;;;7.40;99.90;;;7.74;75.60;103397.56;5072428;28;20083;-65
2022/01/21 07:16:35;;;;;;;22.40;6.60;;;7.60;99.90;;;7.87;75.36;103402.63;5072593;28;20105;-65
2022/01/21 07:19:04;;;;;;;26.08;6.47;;;7.70;99.90;;;7.83;75.36;103408.56;5072405;28;20621;-65
2022/01/21 07:21:32;;;;;;;20.17;6.57;;;7.60;99.90;;;7.82;75.23;103404.13;5072283;28;20355;-65
2022/01/21 07:24:00;;;;;;;17.88;5.95;;;7.60;99.90;;;7.68;75.65;103405.22;5072150;28;20147;-66
2022/01/21 07:26:29;;;;;;;18.75;6.40;;;7.50;99.90;;;7.60;75.72;103408.28;5071980;28;20053;-65
2022/01/21 07:28:57;;;;;;;27.33;6.97;;;7.40;99.90;;;7.65;75.80;103405.06;5072107;28;20474;-65
2022/01/21 07:31:27;;;;;;;17.77;6.05;;;7.40;99.90;;;7.73;75.70;103411.59;5072032;28;20238;-65
2022/01/21 07:33:55;;;;;;;23.10;6.30;;;7.50;99.90;;;7.73;75.83;103416.88;5071904;28;20135;-66
2022/01/21 07:36:24;;;;;;;22.65;6.25;;;7.50;99.90;;;7.94;75.26;103430.16;5071826;28;20079;-65
2022/01/21 07:38:52;;;;;;;19.70;5.85;;;7.60;99.90;;;7.75;75.66;103433.66;5071868;28;20119;-65
2022/01/21 07:41:21;;;;;;;16.50;5.35;;;7.50;99.90;;;7.67;75.44;103436.72;5071764;28;20151;-65
2022/01/21 07:43:49;;;;;;;26.95;6.97;;;7.50;99.90;;;7.70;76.23;103435.16;5071684;28;20044;-65
2022/01/21 07:46:18;;;;;;;24.08;7.10;;;7.40;99.90;;;7.39;77.32;103437.13;5071628;28;20068;-66
2022/01/21 07:48:48;;;;;;;22.58;7.28;;;7.30;99.90;;;7.53;77.67;103432.53;5071615;28;20139;-65
2022/01/21 07:51:17;;;;;;;20.77;6.18;;;7.30;99.90;;;7.52;77.98;103438.63;5071774;28;20218;-65
2022/01/21 07:53:45;;;;;;;27.05;7.40;;;7.30;99.90;;;7.63;77.93;103427.78;5071548;28;20044;-65
2022/01/21 07:56:14;;;;;;;19.92;5.55;;;7.40;99.90;;;7.41;78.27;103376.63;5071521;28;20048;-65
2022/01/21 07:58:42;;;;;;;24.80;6.20;;;7.50;99.90;;;7.50;78.78;103422.75;5071476;28;20043;-61
2022/01/21 08:01:11;;;;;;;23.92;6.38;;;7.40;99.90;;;7.68;79.72;103421.03;5071476;28;20044;-61
2022/01/21 08:03:39;;;;;;;21.02;6.25;;;7.50;99.90;;;7.67;79.36;103423.56;5071542;28;20121;-62
2022/01/21 08:06:09;;;;;;;19.05;6.63;;;7.50;99.90;;;7.66;79.23;103406.88;5071733;28;20076;-62
2022/01/21 08:08:38;;;;;;;19.70;5.82;;;7.50;99.90;;;7.79;78.55;103403.97;5072288;28;20103;-62
2022/01/21 08:11:06;;;;;;;15.27;5.50;;;7.70;99.90;;;8.07;77.79;103420.25;5071464;28;20393;-62
2022/01/21 08:13:34;;;;;;;14.63;6.07;;;7.80;99.90;;;8.24;77.00;103426.31;5071888;28;20049;-63
2022/01/21 08:16:03;;;;;;;15.95;5.40;;;8.00;99.90;;;8.27;76.16;103415.03;5071633;28;20102;-63
2022/01/21 08:18:32;;;;;;;20.88;5.50;;;8.10;99.90;;;8.35;76.63;103418.91;5071226;28;20053;-62
2022/01/21 08:21:00;;;;;;;15.65;5.22;;;8.20;99.90;;;8.37;76.46;103411.97;5071443;28;20041;-63
2022/01/21 08:23:30;;;;;;;15.57;5.88;;;8.20;99.90;;;8.62;75.79;103425.44;5071352;28;20231;-62
2022/01/21 08:25:58;;;;;;;15.87;5.63;;;8.30;99.90;;;8.77;75.95;103439.28;5070183;28;20045;-61
2022/01/21 08:28:27;;;;;;;20.65;6.43;;;8.50;99.90;;;8.77;74.61;103432.28;5071282;28;20355;-63
2022/01/21 08:30:55;;;;;;;15.57;5.75;;;8.60;99.90;;;8.87;74.32;103449.44;5071253;28;20048;-63
2022/01/21 08:33:43;;;;;;;15.70;6.07;;;8.70;99.90;;;8.93;74.73;103450.63;5071616;28;20417;-62
2022/01/21 08:36:11;;;;;;;17.30;5.70;;;8.70;99.90;;;8.95;74.19;103442.75;5071310;28;20049;-62
2022/01/21 08:38:41;;;;;;;14.90;5.53;;;8.70;99.90;;;9.01;74.51;103435.09;5071857;28;20049;-61
2022/01/21 08:41:10;;;;;;;12.90;5.70;;;8.70;99.90;;;9.09;74.45;103436.34;5070151;28;20056;-62
2022/01/21 08:43:38;;;;;;;18.80;6.10;;;8.80;99.90;;;9.01;74.18;103433.38;5071753;28;20045;-61
2022/01/21 08:46:07;;;;;;;18.45;5.95;;;8.80;99.90;;;8.92;74.47;103432.94;5071454;28;20068;-61
2022/01/21 08:48:36;;;;;;;22.33;6.32;;;8.70;99.90;;;9.00;74.75;103434.19;5071450;28;20037;-61
2022/01/21 08:51:09;;;;;;;17.90;5.80;;;8.70;99.90;;;9.01;74.92;103432.47;5072026;28;20469;-61
2022/01/21 08:53:41;;;;;;;22.17;6.32;;;8.70;99.90;;;9.33;75.47;103431.19;5074510;28;20463;-62
2022/01/21 08:56:14;;;;;;;19.95;6.38;;;9.00;99.90;;;9.52;75.01;103433.75;5075468;28;20041;-60
2022/01/21 08:58:44;;;;;;;18.48;6.82;;;9.20;99.90;;;9.66;74.89;103437.84;5073987;28;20494;-61
2022/01/21 09:01:13;;;;;;;21.20;6.82;;;9.30;99.90;;;9.63;74.42;103440.38;5075246;28;20044;-68
2022/01/21 09:03:43;;;;;;;22.98;7.28;;;9.40;99.90;;;9.57;74.14;103438.38;5074748;28;20588;-61
2022/01/21 09:06:16;;;;;;;24.10;6.32;;;9.30;99.90;;;9.52;74.46;103433.75;5074497;28;20123;-61
2022/01/21 09:08:46;;;;;;;19.48;6.35;;;9.30;99.90;;;9.50;74.80;103438.06;5075002;28;20139;-61
2022/01/21 09:11:15;;;;;;;18.10;6.13;;;9.20;99.90;;;9.48;74.39;103438.03;5074911;28;20052;-61
2022/01/21 09:13:44;;;;;;;25.30;6.27;;;9.20;99.90;;;9.35;75.00;103424.25;5074933;28;20056;-65
2022/01/21 09:16:13;;;;;;;27.70;6.35;;;9.10;99.90;;;9.31;75.02;103420.53;5074508;28;20336;-60
2022/01/21 09:18:49;;;;;;;22.83;5.50;;;9.00;99.90;;;9.20;75.78;103431.50;5073172;28;20060;-62
2022/01/21 09:21:38;;;;;;;21.10;5.65;;;8.90;99.90;;;9.19;76.80;103430.63;5074361;28;20072;-61
2022/01/21 09:24:07;;;;;;;25.25;6.45;;;8.90;99.90;;;8.99;76.59;103413.00;5074639;28;20394;-61
2022/01/21 09:26:37;;;;;;;22.90;7.03;;;8.90;99.90;;;8.98;78.06;103433.22;5074522;28;20079;-61
2022/01/21 09:29:06;;;;;;;20.17;6.05;;;8.80;99.90;;;8.96;78.72;103426.09;5074563;28;20037;-61
2022/01/21 09:31:36;;;;;;;17.17;5.90;;;8.70;99.90;;;8.90;79.07;103423.19;5074186;28;20082;-63
2022/01/21 09:34:23;;;;;;;15.52;5.30;;;8.70;99.90;;;8.49;80.33;103429.28;5074455;28;20131;-62
2022/01/21 09:36:53;;;;;;;13.30;5.47;;;8.40;99.90;;;8.52;80.39;103423.22;5074362;28;20140;-63
2022/01/21 09:39:22;;;;;;;11.23;4.50;;;8.40;99.90;;;8.47;80.49;103419.47;5074107;28;20047;-62
2022/01/21 09:41:54;;;;;;;14.10;5.13;;;8.30;99.90;;;8.34;81.64;103423.31;5073956;28;20509;-63
2022/01/21 09:44:23;;;;;;;13.30;4.10;;;8.20;99.90;;;8.48;82.04;103431.84;5074176;28;20110;-63
2022/01/21 09:46:53;;;;;;;13.13;4.80;;;8.20;99.90;;;8.37;82.13;103418.16;5074164;28;20053;-69
2022/01/21 09:49:27;;;;;;;;;;;8.30;99.90;;;8.50;82.20;103422.25;5074462;28;20159;-62
2022/01/21 09:51:59;;;;;;;13.98;4.85;;;8.40;99.90;;;8.54;82.32;103434.75;5074163;28;19920;-65
2022/01/21 09:54:34;;;;;;;14.80;5.05;;;8.40;99.90;;;8.38;82.68;103408.53;5073711;28;20110;-62
2022/01/21 09:57:07;;;;;;;12.18;4.50;;;8.30;99.90;;;8.39;83.60;103432.31;5074037;28;20060;-61
2022/01/21 09:59:39;;;;;;;16.98;5.22;;;8.30;99.90;;;8.49;83.79;103433.63;5073893;28;20037;-61
2022/01/21 10:02:29;;;;;;;11.25;4.53;;;8.30;99.90;;;7.91;84.59;103343.97;5073926;28;20044;-65
2022/01/21 10:04:59;;;;;;;14.88;4.70;;;8.20;99.90;;;8.44;84.62;103448.38;5073076;28;20072;-64
2022/01/21 10:07:29;;;;;;;15.98;5.30;;;8.20;99.90;;;8.46;85.11;103444.06;5073653;28;20128;-63
2022/01/21 10:10:00;;;;;;;17.83;4.43;;;8.30;99.90;;;8.41;85.78;103446.47;5073552;28;20512;-63
2022/01/21 10:12:30;;;;;;;19.20;5.88;;;8.20;99.90;;;8.39;85.98;103447.22;5073868;28;20518;-63
2022/01/21 10:14:58;;;;;;;11.73;4.90;;;8.20;99.90;;;8.50;86.25;103451.25;5073718;28;20484;-63
2022/01/21 10:18:04;;;;;;;16.75;5.70;;;8.20;99.90;;;8.76;86.24;103445.44;5074197;28;20059;-63
2022/01/21 10:20:40;;;;;;;16.63;4.40;;;8.50;99.90;;;9.17;86.44;103455.16;5073815;28;20446;-64
2022/01/21 10:23:10;;;;;;;17.15;4.82;;;8.80;99.90;;;9.55;85.62;103453.28;5073491;28;20040;-65
2022/01/21 10:25:40;;;;;;;13.75;4.65;;;9.30;99.90;;;10.08;83.32;103450.13;5073966;28;20126;-63
2022/01/21 10:28:13;;;;;;;18.85;4.78;;;9.80;99.90;;;10.24;81.36;103459.59;5073875;28;20114;-65
2022/01/21 10:30:43;;;;;;;19.73;4.85;;;10.00;99.90;;;10.22;80.03;103458.63;5073393;28;20446;-65
2022/01/21 10:33:24;;;;;;;19.98;5.70;;;10.10;99.90;;;9.92;79.81;103459.22;5073138;28;20052;-66
2022/01/21 10:36:06;;;;;;;;;;;9.90;99.90;;;9.70;80.12;103461.81;5073664;28;20156;-65
2022/01/21 10:38:42;;;;;;;20.20;5.03;;;9.60;99.90;;;9.65;79.28;103458.09;5073113;28;20015;-64
2022/01/21 10:41:15;;;;;;;20.88;5.60;;;9.50;99.90;;;9.41;80.03;103450.88;5073092;28;20040;-62
2022/01/21 10:44:04;;;;;;;22.30;6.32;;;9.30;99.90;;;9.68;79.48;103445.00;5072996;28;20072;-64
2022/01/21 10:46:33;;;;;;;19.63;5.50;;;9.40;99.90;;;9.28;80.05;103444.19;5072593;28;20557;-63
2022/01/21 10:49:05;;;;;;;17.35;5.85;;;9.20;99.90;;;9.05;80.53;103447.59;5073178;28;20055;-63
2022/01/21 10:51:37;;;;;;;20.98;5.05;;;9.00;99.90;;;8.87;80.61;103447.69;5072831;28;20068;-65
2022/01/21 10:54:17;;;;;;;22.85;5.53;;;8.90;99.90;;;9.07;80.60;103445.94;5072576;28;20044;-62
2022/01/21 10:57:22;;;;;;;15.10;5.45;;;8.90;99.90;;;9.07;80.31;103446.84;5072985;28;20449;-65
2022/01/21 10:59:57;;;;;;;19.13;5.60;;;8.90;99.90;;;9.02;80.52;103434.25;5067760;28;20064;-68
2022/01/21 11:02:42;;;;;;;20.30;5.20;;;9.00;99.90;;;8.99;79.22;103463.16;5072685;28;20068;-64
2022/01/21 11:05:17;;;;;;;15.02;4.38;;;8.90;99.90;;;9.01;78.96;103443.94;5072785;28;20067;-63
2022/01/21 11:07:59;;;;;;;20.20;5.50;;;8.90;99.90;;;9.10;79.49;103459.25;5071273;28;20045;-69
2022/01/21 11:10:49;;;;;;;17.65;5.43;;;8.90;99.90;;;8.93;79.98;103433.88;5072386;28;20380;-63
2022/01/21 11:13:40;;;;;;;14.95;5.63;;;8.80;99.90;;;8.91;79.89;103436.44;5072940;28;20436;-62
2022/01/21 11:16:18;;;;;;;17.60;5.78;;;8.80;99.90;;;8.79;79.91;103438.53;5072336;28;20053;-63
2022/01/21 11:19:08;;;;;;;14.35;4.93;;;8.70;99.90;;;8.69;80.03;103438.09;5072269;28;20140;-61
2022/01/21 11:21:54;;;;;;;14.65;5.38;;;8.60;99.90;;;8.85;81.20;103429.97;5072795;28;20417;-63
2022/01/21 11:24:25;;;;;;;21.30;6.00;;;8.60;99.90;;;9.13;80.34;103424.16;5072273;28;20127;-61
2022/01/21 11:27:10;;;;;;;25.70;6.03;;;8.90;99.90;;;9.15;80.81;103420.75;5072138;28;20106;-62